Time,TemperatureF,DewpointF,PressureIn,WindDirection,WindDirectionDegrees,WindSpeedMPH,WindSpeedGustMPH,Humidity,HourlyPrecipIn,Conditions,Clouds,dailyrainin,SolarRadiationWatts/m^2,SoftwareType,DateUTC
2013-04-24 00:02:00,41.0,20.0,-100.00,West,260,0.0,0.0,42,0.00,,,0.00,0.000000,,2013-04-24 07:02:00,
2013-04-24 00:32:00,42.0,19.0,-100.00,West,269,0.0,0.0,39,0.00,,,0.00,0.000000,,2013-04-24 07:32:00,
2013-04-24 00:42:00,42.0,19.0,-100.00,West,269,0.0,0.0,39,0.00,,,0.00,0.000000,,2013-04-24 07:42:00,
2013-04-24 00:52:00,42.0,19.0,-100.00,West,269,0.0,0.0,39,0.00,,,0.00,0.000000,,2013-04-24 07:52:00,
2013-04-24 01:01:00,42.0,19.0,-100.00,West,269,0.0,0.0,39,0.00,,,0.00,0.000000,,2013-04-24 08:01:00,
2013-04-24 01:33:00,41.0,15.0,-100.00,West,268,0.0,0.0,35,0.00,,,0.00,0.000000,,2013-04-24 08:33:00,
2013-04-24 01:42:00,41.0,15.0,-100.00,West,268,0.0,0.0,35,0.00,,,0.00,0.000000,,2013-04-24 08:42:00,
2013-04-24 01:52:00,41.0,15.0,-100.00,West,268,0.0,0.0,35,0.00,,,0.00,0.000000,,2013-04-24 08:52:00,
2013-04-24 02:01:00,41.0,15.0,-100.00,West,268,0.0,0.0,35,0.00,,,0.00,0.000000,,2013-04-24 09:01:00,
2013-04-24 02:33:00,41.0,16.0,-100.00,West,261,0.0,0.0,36,0.00,,,0.00,0.000000,,2013-04-24 09:33:00,
2013-04-24 02:42:00,41.0,16.0,-100.00,West,261,0.0,0.0,36,0.00,,,0.00,0.000000,,2013-04-24 09:42:00,
2013-04-24 02:53:00,41.0,16.0,-100.00,West,261,0.0,0.0,36,0.00,,,0.00,0.000000,,2013-04-24 09:53:00,
2013-04-24 03:02:00,41.0,16.0,-100.00,West,261,0.0,0.0,36,0.00,,,0.00,0.000000,,2013-04-24 10:02:00,
2013-04-24 03:33:00,42.0,16.0,-100.00,West,266,0.0,0.0,35,0.00,,,0.00,0.000000,,2013-04-24 10:33:00,
2013-04-24 03:42:00,42.0,16.0,-100.00,West,266,0.0,0.0,35,0.00,,,0.00,0.000000,,2013-04-24 10:42:00,
2013-04-24 03:53:00,42.0,16.0,-100.00,West,266,0.0,0.0,35,0.00,,,0.00,0.000000,,2013-04-24 10:53:00,
2013-04-24 04:02:00,42.0,16.0,-100.00,West,266,0.0,0.0,35,0.00,,,0.00,0.000000,,2013-04-24 11:02:00,
2013-04-24 04:32:00,40.0,16.0,-100.00,West,263,0.0,0.0,38,0.00,,,0.00,0.000000,,2013-04-24 11:32:00,
2013-04-24 04:42:00,40.0,16.0,-100.00,West,263,0.0,0.0,38,0.00,,,0.00,0.000000,,2013-04-24 11:42:00,
2013-04-24 04:52:00,40.0,16.0,-100.00,West,263,0.0,0.0,38,0.00,,,0.00,0.000000,,2013-04-24 11:52:00,
2013-04-24 05:01:00,40.0,16.0,-100.00,West,263,0.0,0.0,38,0.00,,,0.00,0.000000,,2013-04-24 12:01:00,
2013-04-24 05:32:00,41.0,16.0,-100.00,West,277,0.0,0.0,36,0.00,,,-99.99,0.000000,,2013-04-24 12:32:00,
2013-04-24 05:42:00,41.0,16.0,-100.00,West,277,0.0,0.0,36,0.00,,,-99.99,0.000000,,2013-04-24 12:42:00,
2013-04-24 05:52:00,41.0,16.0,-100.00,West,277,0.0,0.0,36,0.00,,,-99.99,0.000000,,2013-04-24 12:52:00,
2013-04-24 06:01:00,41.0,16.0,-100.00,West,277,0.0,0.0,36,0.00,,,-99.99,0.000000,,2013-04-24 13:01:00,
2013-04-24 08:33:00,51.0,21.0,-100.00,West,281,0.0,0.0,30,-99.99,,,0.00,378.000000,,2013-04-24 15:33:00,
2013-04-24 10:32:00,58.0,20.0,-100.00,NNW,328,0.0,0.0,23,-99.99,,,0.00,826.000000,,2013-04-24 17:32:00,
2013-04-24 11:33:00,59.0,21.0,-100.00,WNW,290,0.0,0.0,23,0.00,,,0.00,989.000000,,2013-04-24 18:33:00,
2013-04-24 11:43:00,59.0,21.0,-100.00,WNW,290,0.0,0.0,23,0.00,,,0.00,989.000000,,2013-04-24 18:43:00,
2013-04-24 11:52:00,59.0,21.0,-100.00,WNW,290,0.0,0.0,23,0.00,,,0.00,989.000000,,2013-04-24 18:52:00,
2013-04-24 12:01:00,59.0,21.0,-100.00,WNW,290,0.0,0.0,23,0.00,,,0.00,989.000000,,2013-04-24 19:01:00,
2013-04-24 12:32:00,60.0,20.0,-100.00,WNW,290,0.0,0.0,21,0.00,,,0.00,1092.000000,,2013-04-24 19:32:00,
2013-04-24 12:42:00,60.0,20.0,-100.00,WNW,290,0.0,0.0,21,0.00,,,0.00,1092.000000,,2013-04-24 19:42:00,
2013-04-24 12:52:00,60.0,20.0,-100.00,WNW,290,0.0,0.0,21,0.00,,,0.00,1092.000000,,2013-04-24 19:52:00,
2013-04-24 13:01:00,60.0,20.0,-100.00,WNW,290,0.0,0.0,21,0.00,,,0.00,1092.000000,,2013-04-24 20:01:00,
2013-04-24 13:32:00,62.0,20.0,-100.00,WNW,292,0.0,0.0,20,0.00,,,0.00,1126.000000,,2013-04-24 20:32:00,
2013-04-24 13:42:00,62.0,20.0,-100.00,WNW,292,0.0,0.0,20,0.00,,,0.00,1126.000000,,2013-04-24 20:42:00,
2013-04-24 13:52:00,62.0,20.0,-100.00,WNW,292,0.0,0.0,20,0.00,,,0.00,1126.000000,,2013-04-24 20:52:00,
2013-04-24 14:02:00,62.0,20.0,-100.00,WNW,292,0.0,0.0,20,0.00,,,0.00,1126.000000,,2013-04-24 21:02:00,
2013-04-24 14:33:00,65.0,23.0,-100.00,WNW,287,0.0,0.0,20,0.00,,,0.00,1084.000000,,2013-04-24 21:33:00,
2013-04-24 15:02:00,65.0,23.0,-100.00,WNW,287,0.0,0.0,20,0.00,,,0.00,1084.000000,,2013-04-24 22:02:00,
2013-04-24 15:33:00,68.0,24.0,-100.00,WNW,293,0.0,0.0,19,0.00,,,0.00,984.000000,,2013-04-24 22:33:00,
2013-04-24 15:42:00,68.0,24.0,-100.00,WNW,293,0.0,0.0,19,0.00,,,0.00,984.000000,,2013-04-24 22:42:00,
2013-04-24 15:52:00,68.0,24.0,-100.00,WNW,293,0.0,0.0,19,0.00,,,0.00,984.000000,,2013-04-24 22:52:00,
2013-04-24 16:02:00,68.0,24.0,-100.00,WNW,293,0.0,0.0,19,0.00,,,0.00,984.000000,,2013-04-24 23:02:00,
2013-04-24 16:32:00,68.0,23.0,-100.00,WNW,292,0.0,0.0,18,0.00,,,0.00,828.000000,,2013-04-24 23:32:00,
2013-04-24 16:42:00,68.0,23.0,-100.00,WNW,292,0.0,0.0,18,0.00,,,0.00,828.000000,,2013-04-24 23:42:00,
2013-04-24 16:52:00,68.0,23.0,-100.00,WNW,292,0.0,0.0,18,0.00,,,0.00,828.000000,,2013-04-24 23:52:00,
2013-04-24 17:01:00,68.0,23.0,-100.00,WNW,292,0.0,0.0,18,0.00,,,0.00,828.000000,,2013-04-25 00:01:00,
2013-04-24 17:32:00,67.0,23.0,-100.00,WNW,288,0.0,0.0,19,0.00,,,-99.99,485.000000,,2013-04-25 00:32:00,
2013-04-24 17:42:00,67.0,23.0,-100.00,WNW,288,0.0,0.0,19,0.00,,,-99.99,485.000000,,2013-04-25 00:42:00,
2013-04-24 17:52:00,67.0,23.0,-100.00,WNW,288,0.0,0.0,19,0.00,,,-99.99,485.000000,,2013-04-25 00:52:00,
2013-04-24 18:01:00,67.0,23.0,-100.00,WNW,288,0.0,0.0,19,0.00,,,-99.99,485.000000,,2013-04-25 01:01:00,
2013-04-24 18:32:00,64.0,25.0,-100.00,WNW,294,0.0,0.0,23,0.00,,,0.00,330.000000,,2013-04-25 01:32:00,
2013-04-24 18:42:00,64.0,25.0,-100.00,WNW,294,0.0,0.0,23,0.00,,,0.00,330.000000,,2013-04-25 01:42:00,
2013-04-24 18:52:00,64.0,25.0,-100.00,WNW,294,0.0,0.0,23,0.00,,,0.00,330.000000,,2013-04-25 01:52:00,
2013-04-24 19:01:00,64.0,25.0,-100.00,WNW,294,0.0,0.0,23,0.00,,,0.00,330.000000,,2013-04-25 02:01:00,
2013-04-24 19:32:00,58.0,28.0,-100.00,WNW,284,0.0,0.0,32,0.00,,,0.00,77.000000,,2013-04-25 02:32:00,
2013-04-24 19:42:00,58.0,28.0,-100.00,WNW,284,0.0,0.0,32,0.00,,,0.00,77.000000,,2013-04-25 02:42:00,
2013-04-24 19:51:00,58.0,28.0,-100.00,WNW,284,0.0,0.0,32,0.00,,,0.00,77.000000,,2013-04-25 02:51:00,
2013-04-24 20:02:00,58.0,28.0,-100.00,WNW,284,0.0,0.0,32,0.00,,,0.00,77.000000,,2013-04-25 03:02:00,
2013-04-24 20:33:00,52.0,34.0,-100.00,WNW,286,0.0,0.0,50,0.00,,,0.00,3.000000,,2013-04-25 03:33:00,
2013-04-24 20:43:00,52.0,34.0,-100.00,WNW,286,0.0,0.0,50,0.00,,,0.00,3.000000,,2013-04-25 03:43:00,
2013-04-24 20:52:00,52.0,34.0,-100.00,WNW,286,0.0,0.0,50,0.00,,,0.00,3.000000,,2013-04-25 03:52:00,
2013-04-24 21:03:00,52.0,34.0,-100.00,WNW,286,0.0,0.0,50,0.00,,,0.00,3.000000,,2013-04-25 04:03:00,
2013-04-24 21:33:00,48.0,31.0,-100.00,West,264,0.0,0.0,51,0.00,,,0.00,0.000000,,2013-04-25 04:33:00,
2013-04-24 21:43:00,48.0,31.0,-100.00,West,264,0.0,0.0,51,0.00,,,0.00,0.000000,,2013-04-25 04:43:00,
2013-04-24 21:52:00,48.0,31.0,-100.00,West,264,0.0,0.0,51,0.00,,,0.00,0.000000,,2013-04-25 04:52:00,
2013-04-24 22:02:00,48.0,31.0,-100.00,West,264,0.0,0.0,51,0.00,,,0.00,0.000000,,2013-04-25 05:02:00,
2013-04-24 22:32:00,49.0,29.0,-100.00,ENE,63,0.0,0.0,46,0.00,,,0.00,0.000000,,2013-04-25 05:32:00,
2013-04-24 22:42:00,49.0,29.0,-100.00,ENE,63,0.0,0.0,46,0.00,,,0.00,0.000000,,2013-04-25 05:42:00,
2013-04-24 22:52:00,49.0,29.0,-100.00,ENE,63,0.0,0.0,46,0.00,,,0.00,0.000000,,2013-04-25 05:52:00,
2013-04-24 23:01:00,49.0,29.0,-100.00,ENE,63,0.0,0.0,46,0.00,,,0.00,0.000000,,2013-04-25 06:01:00,